Share

Abbeville, GA

Abbeville, GA (KGAABBEV4) Elev 223 ft | 32.00 °N, 83.32 °W | Change Station

Current weather conditions updated 4 minutes ago

Rain
Rain
53.2 °F
Feels Like 53.2 °F
N
4.7
Wind Variable Wind from East
Sunrise 7:00 AM
Sunset 8:04 PM
Moon Waning Gibbous

Today is forecast to be Much Cooler than yesterday. Periods of heavy rain.

Pressure 30.15 in
Visibility 4.0 miles
Clouds Overcast 600 ft
Dew Point 53 °F
Humidity 99%
Rainfall 1.23 in
Snow Depth Not available.
UV 4 out of 16
Pollen 3.10 out of 12
Air Quality Not available.
Flu Activity Sporadic
METAR KEZM 181755Z AUTO 06012G18KT 4SM RA OVC006 14/14 A3015 RMK AO2 T01350135 10148 20135

More Conditions Fewer Conditions

Pressure 30.15 in
Visibility 4.0 miles
Clouds Overcast 600 ft
Dew Point 53 °F
Humidity 99%
Rainfall 1.23 in
Snow Depth Not available.
UV 4 out of 16
Pollen 3.10 out of 12
Air Quality Not available.
Flu Activity Sporadic
METAR KEZM 181755Z AUTO 06012G18KT 4SM RA OVC006 14/14 A3015 RMK AO2 T01350135 10148 20135

More Conditions Fewer Conditions

10-Day Weather Forecast

Almanac

Astronomy

Apr. 18, 2014 Rise Set
Actual Time 7:00 AM EDT 8:04 PM EDT
Civil Twilight 6:35 AM EDT 8:29 PM EDT
Nautical Twilight 6:05 AM EDT 8:59 PM EDT
Astronomical Twilight 5:35 AM EDT 9:30 PM EDT
Moon 11:40 PM EDT 9:29 AM EDT
Length of Visible Light 13h 54m
Length of Day
13h 03m
Tomorrow will be 1m 50s longer.
Waning Gibbous, 86% of the Moon is Illuminated
Today
Waning Gibbous
Apr 22
Last Quarter
Apr 29
New
May 6
First Quarter
May 14
Full

Today's Extremes

State Highs State Lows

Community

  • What's for Lunch?
    What's for Lunch?
  • SUNRISE THROUGH THE TREES.
    SUNRISE THROUGH THE TREES.
  • Dog Wood Blossoms
    Dog Wood Blossoms
  • Morning Light
    Morning Light
  • New Day
    New Day

WunderPhotos

Upload Photos

1,702,443 photos uploaded!

Nearby

Snow Depth

Station Depth Elevation
No new snow has been reported.

Coastal Water Temperatures

Place Temperature
No Stations Reporting

Earthquake Activity

City Distance Mag. Time & Date
No recent earthquake activity has been reported nearby.
Minimum magnitude displayed is 2.5.

Nearby Weather Stations

Station Location Temp. Dew Point Humidity Wind Precip. Elev Updated Type
Abbeville, GA, Abbeville, GA 53.2 °F 53 °F 99% East  at  4.7 mph - / hr 223 ft 2:10 PM EDT Normal
SW of Chauncey, Chauncey, GA 53.6 °F 53 °F 98% NE  at  0.0 mph 0.34 in / hr 348 ft 2:15 PM EDT Rapid Fire
Eastman, Eastman, GA 52.7 °F 52 °F 99% NNE  at  8.9 mph - / hr 394 ft 2:02 PM EDT Normal

Show More Stations Show Fewer Stations

What do you think?

We're not finished. Please let us know what you like, what you don't like, and what you are still missing.